Weather observations for the past three days for
ROLLA
| Date | Time (cdt) | Wind (kph) | Vis. (km) | Weather | Sky Cond. | Temperature (ºC) | Relative Humidity | Wind Chill (°C) | Heat Index (°C) | Pressure | Precipitation (cm) | ||||||
|---|---|---|---|---|---|---|---|---|---|---|---|---|---|---|---|---|---|
| Air | Dwpt | 6 hour | altimeter (cm) | sea level (mb) | 1 hr | 3 hr | 6 hr | ||||||||||
| Max. | Min. | ||||||||||||||||
| 02 | 14:15 | NW 30 G 48 | 16.09 | Fair | CLR | 20 | -7 | 16% | 75.57 | 0.0 | |||||||
| 02 | 13:55 | NW 24 G 41 | 16.09 | Fair | CLR | 20 | -8 | 14% | 75.54 | 0.0 | |||||||
| 02 | 13:35 | N 35 G 48 | 16.09 | Fair and Breezy | CLR | 20 | -7 | 16% | 75.54 | 0.0 | |||||||
| 02 | 13:15 | NW 22 G 37 | 16.09 | Fair | CLR | 20 | -10 | 12% | 75.54 | 0.0 | |||||||
| 02 | 12:55 | NW 31 G 43 | 16.09 | Fair | CLR | 20 | -10 | 12% | 75.54 | 0.0 | |||||||
| 02 | 12:35 | W 28 | 16.09 | Fair | CLR | 20 | -10 | 12% | 75.54 | 0.0 | |||||||
| 02 | 12:15 | W 24 G 33 | 16.09 | Fair | CLR | 19 | -10 | 13% | 75.57 | 0.0 | |||||||
| 02 | 11:55 | W 20 G 33 | 16.09 | Fair | CLR | 18 | -9 | 15% | 75.59 | 0.0 | |||||||
| 02 | 11:35 | W 22 G 35 | 16.09 | A Few Clouds | FEW090 | 17 | -8 | 17% | 75.59 | 0.0 | |||||||
| 02 | 11:15 | W 24 G 39 | 16.09 | Partly Cloudy | SCT095 | 16 | -8 | 19% | 75.62 | 0.0 | |||||||
| 02 | 10:55 | W 26 G 39 | 16.09 | Mostly Cloudy | BKN095 BKN120 | 14 | -8 | 21% | 75.62 | 0.0 | |||||||
| 02 | 10:35 | W 33 G 46 | 16.09 | Partly Cloudy and Breezy | SCT110 | 13 | -7 | 24% | 75.62 | 0.0 | |||||||
| 02 | 10:15 | SW 24 G 33 | 16.09 | Mostly Cloudy | BKN100 | 12 | -8 | 24% | 75.64 | 0.0 | |||||||
| 02 | 09:55 | SW 30 | 16.09 | Mostly Cloudy | BKN090 BKN110 | 11 | -7 | 28% | 75.67 | 0.0 | |||||||
| 02 | 09:35 | SW 22 | 16.09 | Mostly Cloudy | BKN090 BKN110 | 11 | -7 | 28% | 75.67 | 0.0 | |||||||
| 02 | 09:15 | SW 24 | 16.09 | Mostly Cloudy | BKN095 BKN120 | 10 | -7 | 30% | 7 | 75.69 | 0.0 | ||||||
| 02 | 08:55 | SW 26 G 35 | 16.09 | Partly Cloudy | FEW075 SCT090 | 9 | -7 | 32% | 6 | 75.69 | 0.0 | ||||||
| 02 | 08:35 | SW 26 G 37 | 16.09 | Partly Cloudy | SCT100 | 9 | -7 | 32% | 6 | 75.72 | 0.0 | ||||||
| 02 | 08:15 | SW 26 | 16.09 | Mostly Cloudy | BKN100 | 8 | -6 | 37% | 5 | 75.72 | 0.0 | ||||||
| 02 | 07:55 | SW 26 | 16.09 | A Few Clouds | FEW110 | 8 | -7 | 34% | 5 | 75.72 | 0.0 | ||||||
| 02 | 07:35 | SW 26 | 16.09 | A Few Clouds | FEW095 | 8 | -7 | 34% | 5 | 75.77 | 0.0 | ||||||
| 02 | 07:15 | SW 24 | 16.09 | A Few Clouds | FEW095 FEW120 | 8 | -8 | 32% | 5 | 75.79 | 0.0 | ||||||
| 02 | 06:55 | SW 22 | 16.09 | Mostly Cloudy | BKN120 | 8 | -8 | 32% | 5 | 75.79 | 0.0 | ||||||
| 02 | 06:35 | SW 24 | 16.09 | Mostly Cloudy | BKN120 | 9 | -9 | 27% | 6 | 75.84 | 0.0 | ||||||
| 02 | 06:15 | SW 24 | 16.09 | Fair | CLR | 8 | -9 | 29% | 5 | 75.84 | 0.0 | ||||||
| 02 | 05:55 | SW 26 | 16.09 | Fair | CLR | 9 | -9 | 27% | 6 | 75.84 | 0.0 | ||||||
| 02 | 05:35 | SW 26 G 37 | 16.09 | A Few Clouds | FEW120 | 9 | -10 | 25% | 6 | 75.87 | 0.0 | ||||||
| 02 | 05:15 | W 31 | 16.09 | A Few Clouds | FEW120 | 10 | -10 | 24% | 7 | 75.87 | 0.0 | ||||||
| 02 | 04:55 | SW 30 | 16.09 | Fair | CLR | 10 | -10 | 24% | 7 | 75.9 | 0.0 | ||||||
| 02 | 04:35 | W 31 | 16.09 | Fair | CLR | 10 | -10 | 24% | 7 | 75.92 | 0.0 | ||||||
| 02 | 04:15 | W 30 | 16.09 | Fair | CLR | 10 | -10 | 24% | 7 | 75.95 | 0.0 | ||||||
| 02 | 03:55 | W 26 | 16.09 | Fair | CLR | 9 | -9 | 27% | 6 | 75.95 | 0.0 | ||||||
| 02 | 03:35 | W 26 | 16.09 | Fair | CLR | 8 | -7 | 34% | 5 | 75.95 | 0.0 | ||||||
| 02 | 03:15 | W 19 | 16.09 | Fair | CLR | 5 | -4 | 53% | 2 | 75.97 | 0.0 | ||||||
| 02 | 02:55 | SW 20 | 16.09 | Fair | CLR | 4 | -3 | 61% | 0 | 75.97 | 0.0 | ||||||
| 02 | 02:35 | SW 19 | 16.09 | Fair | CLR | 4 | -2 | 65% | 0 | 76 | 0.0 | ||||||
| 02 | 02:15 | SW 13 | 16.09 | Fair | CLR | 3 | -2 | 70% | 0 | 76 | 0.0 | ||||||
| 02 | 01:55 | S 13 | 16.09 | Fair | CLR | 3 | -2 | 70% | 0 | 76.02 | 0.0 | ||||||
| 02 | 01:35 | S 15 | 16.09 | Fair | CLR | 3 | -2 | 70% | -0 | 76.05 | 0.0 | ||||||
| 02 | 01:15 | S 17 | 16.09 | Fair | CLR | 3 | -3 | 65% | -1 | 76.07 | 0.0 | ||||||
| 02 | 00:55 | S 9 | 16.09 | Fair | CLR | 4 | -3 | 61% | 2 | 76.1 | 0.0 | ||||||
| 02 | 00:35 | S 13 | 16.09 | Fair | CLR | 5 | -3 | 57% | 2 | 76.1 | 0.0 | ||||||
| 02 | 00:15 | S 15 | 16.09 | Fair | CLR | 5 | -3 | 57% | 2 | 76.1 | 0.0 | ||||||
| 01 | 23:55 | S 11 G 22 | 16.09 | Fair | CLR | 6 | -4 | 49% | 4 | 76.12 | 0.0 | ||||||
| 01 | 23:35 | S 17 | 16.09 | Fair | CLR | 7 | -5 | 43% | 4 | 76.12 | 0.0 | ||||||
| 01 | 23:15 | S 19 | 16.09 | Fair | CLR | 8 | -6 | 37% | 5 | 76.15 | 0.0 | ||||||
| 01 | 22:55 | S 22 | 16.09 | Fair | CLR | 8 | -5 | 40% | 5 | 76.15 | 0.0 | ||||||
| 01 | 22:35 | S 19 G 30 | 16.09 | Fair | CLR | 8 | -5 | 40% | 5 | 76.15 | 0.0 | ||||||
| 01 | 22:15 | S 19 G 28 | 16.09 | Fair | CLR | 9 | -4 | 40% | 7 | 76.15 | 0.0 | ||||||
| 01 | 21:55 | S 24 | 16.09 | Fair | CLR | 9 | -4 | 40% | 6 | 76.15 | 0.0 | ||||||
| 01 | 21:35 | SE 24 G 33 | 16.09 | Fair | CLR | 9 | -5 | 37% | 6 | 76.15 | 0.0 | ||||||
| 01 | 21:15 | SE 24 | 16.09 | Fair | CLR | 10 | -5 | 35% | 7 | 76.15 | 0.0 | ||||||
| 01 | 20:55 | SE 22 | 16.09 | Fair | CLR | 11 | -5 | 32% | 76.15 | 0.0 | |||||||
| 01 | 20:35 | SE 20 | 16.09 | Fair | CLR | 12 | -7 | 26% | 76.15 | 0.0 | |||||||
| 01 | 20:15 | SE 17 | 16.09 | A Few Clouds | FEW095 | 13 | -7 | 24% | 76.15 | 0.0 | |||||||
| 01 | 19:55 | SE 13 | 16.09 | A Few Clouds | FEW095 | 15 | -8 | 20% | 76.15 | 0.0 | |||||||
| 01 | 19:35 | S 15 | 16.09 | Partly Cloudy | SCT095 | 15 | -9 | 18% | 76.15 | 0.0 | |||||||
| 01 | 19:15 | S 17 | 16.09 | Partly Cloudy | SCT090 | 16 | -10 | 16% | 76.17 | 0.0 | |||||||
| 01 | 18:55 | S 13 | 16.09 | Partly Cloudy | SCT090 | 15 | -10 | 17% | 76.17 | 0.0 | |||||||
| 01 | 18:35 | S 17 | 16.09 | A Few Clouds | FEW090 | 15 | -11 | 16% | 76.2 | 0.0 | |||||||
| 01 | 18:15 | Calm | 16.09 | Fair | CLR | 16 | -11 | 15% | 76.2 | 0.0 | |||||||
| 01 | 17:55 | Calm | 16.09 | Fair | CLR | 15 | -12 | 14% | 76.23 | 0.0 | |||||||
| 01 | 17:35 | S 13 | 16.09 | A Few Clouds | FEW085 | 15 | -11 | 16% | 76.25 | 0.0 | |||||||
| 01 | 17:15 | Vrbl 9 | 16.09 | A Few Clouds | FEW080 | 16 | -13 | 12% | 76.25 | 0.0 | |||||||
| 01 | 16:55 | SE 9 | 8.05 | Mostly Cloudy with Haze | SCT080 BKN090 | 15 | -11 | 16% | 76.28 | 0.0 | |||||||
| 01 | 16:35 | W 7 | 16.09 | Overcast | SCT080 OVC090 | 15 | -11 | 16% | 76.3 | 0.0 | |||||||
| 01 | 16:15 | Vrbl 6 | 16.09 | Mostly Cloudy | FEW070 BKN090 | 15 | -12 | 14% | 76.3 | 0.0 | |||||||
| 01 | 15:55 | W 13 | 16.09 | Mostly Cloudy | BKN090 | 16 | -11 | 15% | 76.33 | 0.0 | |||||||
| 01 | 15:35 | Vrbl 6 | 16.09 | Partly Cloudy | SCT090 | 15 | -9 | 18% | 76.35 | 0.0 | |||||||
| 01 | 15:15 | Calm | 16.09 | Partly Cloudy | FEW065 SCT085 | 14 | -10 | 18% | 76.35 | 0.0 | |||||||
| 01 | 14:55 | Vrbl 7 | 16.09 | Partly Cloudy | FEW065 SCT090 | 14 | -9 | 20% | 76.35 | 0.0 | |||||||
| 01 | 14:35 | Calm | 16.09 | Fair | CLR | 13 | -10 | 19% | 76.38 | 0.0 | |||||||
| 01 | 14:15 | NE 6 | 16.09 | Fair | CLR | 13 | -9 | 21% | 76.38 | 0.0 | |||||||
| 01 | 13:55 | NE 11 | 16.09 | Fair | CLR | 12 | -9 | 22% | 76.4 | 0.0 | |||||||
| 01 | 13:35 | Vrbl 6 | 16.09 | Fair | CLR | 12 | -9 | 22% | 76.4 | 0.0 | |||||||
| 01 | 12:55 | Vrbl 6 | 16.09 | Fair | CLR | 11 | -9 | 24% | 76.45 | 0.0 | |||||||
| 01 | 12:35 | Calm | 16.09 | Fair | CLR | 10 | -9 | 26% | 76.45 | 0.0 | |||||||
| 01 | 12:15 | Vrbl 7 | 16.09 | A Few Clouds | FEW075 | 10 | -9 | 26% | 9 | 76.48 | 0.0 | ||||||
| 01 | 11:55 | Vrbl 11 | 16.09 | Mostly Cloudy | BKN075 | 9 | -9 | 27% | 8 | 76.48 | 0.0 | ||||||
| 01 | 11:35 | Vrbl 7 | 16.09 | Overcast | OVC080 | 8 | -10 | 27% | 7 | 76.48 | 0.0 | ||||||
| 01 | 11:15 | SE 7 | 16.09 | Overcast | OVC080 | 7 | -10 | 29% | 6 | 76.48 | 0.0 | ||||||
| 01 | 10:55 | SW 9 | 16.09 | Overcast | OVC080 | 7 | -9 | 31% | 5 | 76.48 | 0.0 | ||||||
| 01 | 10:35 | S 9 | 16.09 | Overcast | OVC080 | 6 | -8 | 36% | 4 | 76.48 | 0.0 | ||||||
| 01 | 10:15 | S 9 | 16.09 | Overcast | OVC080 | 5 | -8 | 39% | 3 | 76.48 | 0.0 | ||||||
| 01 | 09:55 | S 11 | 16.09 | Mostly Cloudy | BKN080 | 5 | -7 | 42% | 3 | 76.48 | 0.0 | ||||||
| 01 | 09:35 | S 15 | 16.09 | A Few Clouds | FEW080 | 5 | -6 | 45% | 2 | 76.5 | 0.0 | ||||||
| 01 | 09:15 | S 15 | 16.09 | Mostly Cloudy | BKN080 | 3 | -7 | 48% | -0 | 76.5 | 0.0 | ||||||
| 01 | 08:55 | S 15 | 16.09 | Overcast | OVC080 | 3 | -6 | 52% | -0 | 76.5 | 0.0 | ||||||
| 01 | 08:35 | SW 13 | 16.09 | Overcast | OVC080 | 2 | -5 | 60% | -1 | 76.5 | 0.0 | ||||||
| 01 | 08:15 | SW 13 | 16.09 | Mostly Cloudy | BKN080 | 2 | -5 | 60% | -1 | 76.5 | 0.0 | ||||||
| 01 | 07:55 | S 9 | 16.09 | Mostly Cloudy | SCT075 BKN085 | 1 | -5 | 65% | -2 | 76.5 | 0.0 | ||||||
| 01 | 07:35 | SW 9 | 16.09 | Mostly Cloudy | BKN075 | 0 | -5 | 69% | -3 | 76.5 | 0.0 | ||||||
| 01 | 07:15 | SW 7 | 16.09 | Partly Cloudy | SCT080 | -1 | -5 | 75% | -3 | 76.5 | 0.0 | ||||||
| 01 | 06:55 | S 9 | 16.09 | Mostly Cloudy | BKN080 | -2 | -6 | 74% | -5 | 76.48 | 0.0 | ||||||
| 01 | 06:35 | S 7 | 16.09 | Partly Cloudy | FEW065 SCT085 | -2 | -7 | 69% | -4 | 76.48 | 0.0 | ||||||
| 01 | 06:15 | S 9 | 16.09 | Mostly Cloudy | BKN065 | -2 | -7 | 69% | -5 | 76.48 | 0.0 | ||||||
| 01 | 05:55 | SW 7 | 16.09 | Mostly Cloudy | BKN065 | -3 | -6 | 80% | -6 | 76.48 | 0.0 | ||||||
| 01 | 05:35 | SW 9 | 16.09 | Overcast | BKN060 OVC070 | -3 | -7 | 74% | -6 | 76.48 | 0.0 | ||||||
| 01 | 05:15 | SW 9 | 16.09 | Overcast | BKN060 OVC070 | -2 | -7 | 69% | -5 | 76.48 | 0.0 | ||||||
| 01 | 04:55 | SW 11 | 16.09 | Mostly Cloudy | SCT065 BKN075 BKN110 | -2 | -7 | 69% | -6 | 76.48 | 0.0 | ||||||
| 01 | 04:35 | SW 9 | 16.09 | A Few Clouds | FEW090 | -2 | -7 | 69% | -5 | 76.48 | 0.0 | ||||||
| 01 | 04:15 | SW 11 | 16.09 | Mostly Cloudy | BKN090 | -2 | -7 | 69% | -6 | 76.45 | 0.0 | ||||||
| 01 | 03:55 | SW 13 | 16.09 | Mostly Cloudy | BKN090 | -2 | -7 | 69% | -6 | 76.45 | 0.0 | ||||||
| 01 | 03:35 | SW 13 | 16.09 | Overcast | SCT070 OVC090 | -1 | -7 | 64% | -5 | 76.45 | 0.0 | ||||||
| 01 | 03:15 | SW 15 | 16.09 | Overcast | BKN070 OVC090 | -1 | -7 | 64% | -5 | 76.45 | 0.0 | ||||||
| 01 | 02:55 | SW 13 | 16.09 | Overcast | OVC070 | -2 | -6 | 74% | -6 | 76.45 | 0.0 | ||||||
| 01 | 02:35 | SW 11 | 16.09 | Overcast | OVC075 | -2 | -7 | 69% | -6 | 76.45 | 0.0 | ||||||
| 01 | 02:15 | SW 11 | 16.09 | Overcast | OVC080 | -2 | -7 | 69% | -6 | 76.48 | 0.0 | ||||||
| 01 | 01:55 | SW 9 | 16.09 | Overcast | BKN080 OVC090 | -2 | -7 | 69% | -5 | 76.48 | 0.0 | ||||||
| 01 | 01:35 | SW 11 | 16.09 | Partly Cloudy | SCT085 | -3 | -8 | 69% | -7 | 76.48 | 0.0 | ||||||
| 01 | 01:15 | SW 9 | 16.09 | Fair | CLR | -3 | -8 | 69% | -6 | 76.48 | 0.0 | ||||||
| 01 | 00:55 | SW 9 | 16.09 | Fair | CLR | -3 | -8 | 69% | -6 | 76.48 | 0.0 | ||||||
| 01 | 00:35 | SW 9 | 16.09 | Fair | CLR | -2 | -8 | 64% | -5 | 76.45 | 0.0 | ||||||
| 01 | 00:15 | SW 7 | 16.09 | Fair | CLR | -3 | -8 | 69% | -6 | 76.45 | 0.0 | ||||||
| 30 | 23:55 | SW 7 | 16.09 | Fair | CLR | -3 | -8 | 69% | -6 | 76.45 | 0.0 | ||||||
| 30 | 23:35 | SW 9 | 16.09 | Fair | CLR | -2 | -8 | 64% | -5 | 76.45 | 0.0 | ||||||
| 30 | 23:15 | S 7 | 16.09 | Fair | CLR | -1 | -8 | 59% | -3 | 76.45 | 0.0 | ||||||
| 30 | 22:55 | SE 9 | 16.09 | Fair | CLR | -1 | -9 | 55% | -4 | 76.45 | 0.0 | ||||||
| 30 | 22:35 | SE 9 | 16.09 | Fair | CLR | -1 | -9 | 55% | -4 | 76.45 | 0.0 | ||||||
| 30 | 22:15 | SE 11 | 16.09 | Fair | CLR | 0 | -9 | 51% | -3 | 76.45 | 0.0 | ||||||
| 30 | 21:55 | SE 11 | 16.09 | Fair | CLR | 0 | -8 | 55% | -3 | 76.45 | 0.0 | ||||||
| 30 | 21:35 | E 11 | 16.09 | Fair | CLR | 1 | -9 | 48% | -2 | 76.45 | 0.0 | ||||||
| 30 | 21:15 | E 11 | 16.09 | Fair | CLR | 2 | -9 | 44% | -1 | 76.45 | 0.0 | ||||||
| 30 | 20:55 | E 9 | 16.09 | Fair | CLR | 3 | -10 | 38% | 1 | 76.45 | 0.0 | ||||||
| 30 | 20:35 | E 9 | 16.09 | Fair | CLR | 4 | -10 | 36% | 2 | 76.45 | 0.0 | ||||||
| 30 | 20:15 | NE 9 | 16.09 | Fair | CLR | 5 | -10 | 33% | 3 | 76.45 | 0.0 | ||||||
| 30 | 19:55 | NE 13 | 16.09 | Fair | CLR | 6 | -12 | 26% | 4 | 76.43 | 0.0 | ||||||
| 30 | 19:35 | NE 13 | 16.09 | Fair | CLR | 6 | -12 | 26% | 4 | 76.45 | 0.0 | ||||||
| 30 | 19:15 | NE 17 | 16.09 | Fair | CLR | 6 | -12 | 26% | 3 | 76.45 | 0.0 | ||||||
| 30 | 18:55 | NE 19 | 16.09 | Fair | CLR | 7 | -12 | 25% | 4 | 76.45 | 0.0 | ||||||
| 30 | 18:35 | NE 19 G 28 | 16.09 | Fair | CLR | 7 | -12 | 25% | 4 | 76.45 | 0.0 | ||||||
| 30 | 18:15 | N 17 G 28 | 16.09 | A Few Clouds | FEW055 | 7 | -13 | 23% | 4 | 76.48 | 0.0 | ||||||
| 30 | 17:55 | N 19 G 31 | 16.09 | Partly Cloudy | SCT055 | 7 | -12 | 25% | 4 | 76.48 | 0.0 | ||||||
| 30 | 17:35 | N 22 | 16.09 | A Few Clouds | FEW050 | 7 | -12 | 25% | 4 | 76.48 | 0.0 | ||||||
| 30 | 17:15 | N 20 G 30 | 16.09 | Partly Cloudy | SCT050 | 7 | -12 | 25% | 4 | 76.48 | 0.0 | ||||||
| 30 | 16:55 | N 19 G 30 | 16.09 | A Few Clouds | FEW050 | 6 | -13 | 24% | 3 | 76.48 | 0.0 | ||||||
| 30 | 16:35 | N 20 G 30 | 16.09 | A Few Clouds | FEW049 | 6 | -12 | 26% | 3 | 76.5 | 0.0 | ||||||
| 30 | 16:15 | N 26 | 16.09 | A Few Clouds | FEW048 | 6 | -12 | 26% | 2 | 76.5 | 0.0 | ||||||
| 30 | 15:55 | NE 15 G 28 | 16.09 | Partly Cloudy | SCT047 | 6 | -12 | 26% | 3 | 76.5 | 0.0 | ||||||
| 30 | 15:35 | NE 24 | 16.09 | Partly Cloudy | SCT046 | 6 | -12 | 26% | 2 | 76.5 | 0.0 | ||||||
| 30 | 15:15 | N 19 G 30 | 16.09 | Partly Cloudy | SCT045 | 5 | -11 | 31% | 2 | 76.53 | 0.0 | ||||||
| 30 | 14:55 | NW 19 G 30 | 16.09 | Partly Cloudy | SCT043 | 5 | -12 | 28% | 2 | 76.53 | 0.0 | ||||||
| 30 | 14:35 | N 20 G 37 | 16.09 | Mostly Cloudy | BKN042 | 5 | -11 | 31% | 1 | 76.56 | 0.0 | ||||||
| 30 | 14:15 | N 19 G 33 | 16.09 | Mostly Cloudy | BKN041 | 4 | -11 | 33% | 0 | 76.56 | 0.0 | ||||||
| 30 | 13:55 | N 20 G 33 | 16.09 | Overcast | OVC039 | 4 | -11 | 33% | 0 | 76.56 | 0.0 | ||||||
| 30 | 13:35 | N 20 G 31 | 16.09 | Overcast | OVC039 | 4 | -11 | 33% | 0 | 76.58 | 0.0 | ||||||
| 30 | 13:15 | N 20 | 16.09 | Overcast | OVC038 | 3 | -10 | 38% | -1 | 76.58 | 0.0 | ||||||
| 30 | 12:55 | N 28 | 16.09 | Overcast | OVC036 | 3 | -10 | 38% | -2 | 76.61 | 0.0 | ||||||
| 30 | 12:35 | N 17 G 28 | 16.09 | Overcast | OVC036 | 3 | -10 | 38% | -1 | 76.61 | 0.0 | ||||||
| 30 | 12:15 | NE 19 G 31 | 16.09 | Overcast | OVC035 | 2 | -10 | 41% | -2 | 76.61 | 0.0 | ||||||
| 30 | 11:55 | N 26 | 16.09 | Overcast | OVC034 | 2 | -10 | 41% | -3 | 76.61 | 0.0 | ||||||
| 30 | 11:35 | N 24 | 16.09 | Overcast | OVC032 | 2 | -9 | 44% | -3 | 76.61 | 0.0 | ||||||
| 30 | 11:15 | NE 22 | 16.09 | Overcast | OVC031 | 2 | -8 | 48% | -3 | 76.61 | 0.0 | ||||||
| 30 | 10:55 | N 19 | 16.09 | Overcast | OVC030 | 2 | -8 | 48% | -2 | 76.61 | 0.0 | ||||||
| 30 | 10:35 | NE 17 | 16.09 | Overcast | BKN030 OVC034 | 2 | -7 | 52% | -2 | 76.61 | 0.0 | ||||||
| 30 | 10:15 | N 22 | 16.09 | Overcast | BKN026 OVC033 | 2 | -7 | 52% | -3 | 76.61 | 0.0 | ||||||
| 30 | 09:55 | NE 20 | 16.09 | Mostly Cloudy | SCT020 SCT025 BKN034 | 1 | -7 | 56% | -4 | 76.58 | 0.0 | ||||||
| 30 | 09:35 | NE 20 | 16.09 | Mostly Cloudy | FEW018 BKN049 | 1 | -6 | 60% | -4 | 76.58 | 0.0 | ||||||
| 30 | 09:15 | NE 20 | 16.09 | Overcast | OVC048 | 1 | -5 | 65% | -4 | 76.58 | 0.0 | ||||||
| 30 | 08:55 | NE 19 | 16.09 | Overcast | OVC045 | 0 | -5 | 69% | -5 | 76.56 | 0.0 | ||||||
| 30 | 08:35 | NE 19 | 16.09 | Overcast | OVC043 | -1 | -4 | 80% | -6 | 76.56 | 0.0 | ||||||
| 30 | 08:15 | NE 20 | 16.09 | Overcast | OVC041 | -1 | -4 | 80% | -6 | 76.53 | 0.0 | ||||||
| 30 | 07:55 | NE 19 | 16.09 | Overcast | SCT034 OVC042 | -1 | -4 | 80% | -6 | 76.53 | 0.0 | ||||||
| 30 | 07:35 | NE 19 | 16.09 | Overcast | BKN033 OVC045 | -1 | -4 | 80% | -6 | 76.5 | 0.0 | ||||||
| 30 | 07:15 | NE 15 | 16.09 | Mostly Cloudy | SCT033 BKN048 | -2 | -4 | 86% | -6 | 76.5 | 0.0 | ||||||
| 30 | 06:55 | NE 17 | 16.09 | Mostly Cloudy | FEW032 BKN046 | -2 | -4 | 86% | -7 | 76.48 | 0.0 | ||||||
| 30 | 06:35 | NE 19 | 16.09 | Overcast | SCT038 OVC046 | -2 | -5 | 80% | -7 | 76.45 | 0.0 | ||||||
| 30 | 06:15 | NE 19 | 16.09 | Partly Cloudy | FEW035 SCT044 | -2 | -5 | 80% | -7 | 76.45 | 0.0 | ||||||
| 30 | 05:55 | NE 24 | 16.09 | Fair | CLR | -2 | -6 | 74% | -8 | 76.45 | 0.0 | ||||||
| 30 | 05:35 | NE 24 G 37 | 16.09 | Fair | CLR | -2 | -6 | 74% | -8 | 76.43 | 0.0 | ||||||
| 30 | 05:15 | NE 26 G 39 | 16.09 | Fair | CLR | -2 | -5 | 80% | -8 | 76.43 | 0.0 | ||||||
| 30 | 04:35 | NE 19 | 16.09 | Fair | CLR | -2 | -4 | 86% | -7 | 76.38 | 0.0 | ||||||
| 30 | 04:15 | N 17 | 16.09 | Fair | CLR | -2 | -4 | 86% | -7 | 76.38 | 0.0 | ||||||
| 30 | 03:55 | NE 13 | 16.09 | Fair | CLR | -2 | -5 | 80% | -6 | 76.35 | 0.0 | ||||||
| 30 | 03:35 | N 13 | 16.09 | Fair | CLR | -2 | -6 | 74% | -6 | 76.33 | 0.0 | ||||||
| 30 | 03:15 | NW 7 | 16.09 | A Few Clouds | FEW110 | 0 | -6 | 64% | -2 | 76.35 | 0.0 | ||||||
| 30 | 02:55 | Calm | 16.09 | Mostly Cloudy | BKN110 | 1 | -6 | 60% | 76.35 | 0.0 | |||||||
| 30 | 02:35 | Calm | 16.09 | Mostly Cloudy | FEW055 SCT065 BKN100 | 0 | -6 | 64% | 76.35 | 0.0 | |||||||
| 30 | 02:15 | Calm | 16.09 | Overcast | SCT055 OVC065 | 0 | -5 | 69% | 76.38 | 0.0 | |||||||
| 30 | 01:55 | Calm | 16.09 | Mostly Cloudy | SCT055 BKN070 | 1 | -7 | 56% | 76.35 | 0.0 | |||||||
| 30 | 01:35 | S 6 | 16.09 | Mostly Cloudy | FEW050 BKN070 | 1 | -8 | 51% | 76.35 | 0.0 | |||||||
| 30 | 01:15 | S 9 | 16.09 | Mostly Cloudy | FEW043 SCT050 BKN070 | 1 | -7 | 56% | -2 | 76.35 | 0.0 | ||||||
| 30 | 00:55 | S 7 | 16.09 | Overcast | BKN050 OVC065 | 3 | -8 | 45% | 1 | 76.38 | 0.0 | ||||||
| 30 | 00:35 | S 7 | 16.09 | Mostly Cloudy | BKN065 BKN075 | 3 | -8 | 45% | 1 | 76.38 | 0.0 | ||||||
| 30 | 00:15 | S 9 | 16.09 | Overcast | BKN065 BKN075 OVC095 | 3 | -7 | 48% | 1 | 76.38 | 0.0 | ||||||
| 29 | 23:55 | SW 9 | 16.09 | Overcast | FEW040 SCT070 OVC090 | 4 | -8 | 42% | 2 | 76.4 | 0.0 | ||||||
| 29 | 23:35 | W 9 | 16.09 | Mostly Cloudy | FEW027 SCT046 BKN060 | 4 | -8 | 42% | 2 | 76.4 | 0.0 | ||||||
| 29 | 23:15 | W 11 | 16.09 | Mostly Cloudy | FEW045 SCT060 BKN070 | 3 | -6 | 52% | 0 | 76.43 | 0.0 | ||||||
| 29 | 22:55 | SW 11 | 11.27 | Overcast | FEW047 SCT060 OVC070 | 3 | -7 | 48% | 0 | 76.43 | 0.0 | ||||||
| 29 | 22:35 | SW 13 | 14.48 | Overcast | FEW048 BKN060 OVC075 | 2 | -7 | 52% | -1 | 76.45 | 0.0 | ||||||
| 29 | 22:15 | SW 11 | 16.09 | Mostly Cloudy | FEW045 SCT050 BKN060 | 3 | -8 | 45% | 0 | 76.45 | 0.0 | ||||||
| 29 | 21:55 | SW 11 | 16.09 | Mostly Cloudy | FEW045 SCT055 BKN065 | 4 | -8 | 42% | 2 | 76.45 | 0.0 | ||||||
| 29 | 21:35 | W 9 | 16.09 | Mostly Cloudy | FEW043 SCT049 BKN065 | 4 | -8 | 42% | 2 | 76.45 | 0.0 | ||||||
| 29 | 21:15 | W 11 | 16.09 | Mostly Cloudy | FEW048 SCT055 BKN070 | 4 | -8 | 42% | 2 | 76.45 | 0.0 | ||||||
| 29 | 20:55 | W 9 | 16.09 | Overcast | SCT050 BKN060 OVC075 | 5 | -8 | 39% | 3 | 76.45 | 0.0 | ||||||
| 29 | 20:35 | W 9 | 16.09 | Overcast | SCT050 BKN060 OVC075 | 5 | -9 | 36% | 3 | 76.45 | 0.0 | ||||||
| 29 | 20:15 | NW 11 | 16.09 | Overcast | FEW065 OVC075 | 6 | -10 | 31% | 4 | 76.45 | 0.0 | ||||||
| 29 | 19:55 | NW 11 | 16.09 | Overcast | OVC075 | 6 | -10 | 31% | 4 | 76.45 | 0.0 | ||||||
| 29 | 19:35 | NW 13 | 16.09 | Overcast | OVC075 | 6 | -11 | 29% | 4 | 76.45 | 0.0 | ||||||
| 29 | 19:15 | N 17 | 16.09 | Overcast | OVC075 | 6 | -10 | 31% | 3 | 76.45 | 0.0 | ||||||
| 29 | 18:55 | NW 17 | 16.09 | Overcast | OVC070 | 6 | -10 | 31% | 3 | 76.48 | 0.0 | ||||||
| 29 | 18:35 | N 20 | 16.09 | Overcast | OVC070 | 6 | -10 | 31% | 3 | 76.48 | 0.0 | ||||||
| 29 | 18:15 | N 22 | 16.09 | Overcast | BKN055 OVC065 | 6 | -10 | 31% | 2 | 76.48 | 0.0 | ||||||
| 29 | 17:55 | N 13 | 16.09 | Overcast | OVC055 | 6 | -11 | 29% | 4 | 76.48 | 0.0 | ||||||
| 29 | 17:35 | N 13 | 16.09 | Overcast | OVC055 | 6 | -12 | 26% | 4 | 76.45 | 0.0 | ||||||
| 29 | 17:15 | N 17 | 16.09 | Overcast | OVC050 | 6 | -12 | 26% | 3 | 76.45 | 0.0 | ||||||
| 29 | 16:55 | N 15 | 16.09 | Overcast | OVC050 | 7 | -12 | 25% | 5 | 76.45 | 0.0 | ||||||
| 29 | 16:35 | N 13 G 26 | 16.09 | Overcast | OVC055 | 6 | -12 | 26% | 4 | 76.48 | 0.0 | ||||||
| 29 | 16:15 | N 20 G 31 | 16.09 | Overcast | OVC050 | 6 | -12 | 26% | 3 | 76.48 | 0.0 | ||||||
| 29 | 15:55 | N 26 | 16.09 | Overcast | BKN050 OVC055 | 7 | -12 | 25% | 3 | 76.48 | 0.0 | ||||||
| 29 | 15:35 | N 24 | 16.09 | Mostly Cloudy | BKN048 | 7 | -11 | 27% | 4 | 76.48 | 0.0 | ||||||
| 29 | 15:15 | N 20 | 16.09 | Mostly Cloudy | BKN047 BKN055 | 6 | -11 | 29% | 3 | 76.48 | 0.0 | ||||||
| 29 | 14:55 | N 19 | 16.09 | Mostly Cloudy | BKN046 BKN055 | 6 | -11 | 29% | 3 | 76.48 | 0.0 | ||||||
| 29 | 14:35 | N 17 G 28 | 16.09 | Mostly Cloudy | BKN044 BKN055 | 5 | -10 | 33% | 2 | 76.48 | 0.0 | ||||||
| Date | Time (cdt) | Wind (kph) | Vis. (km) | Weather | Sky Cond. | Air | Dwpt | Max. | Min. | Relative Humidity | Wind Chill (°C) | Heat Index (°C) | altimeter (cm) | sea level (mb) | 1 hr | 3 hr | 6 hr |
| 6 hour | |||||||||||||||||
| Temperature (ºC) | Pressure | Precipitation (cm) | |||||||||||||||